createdAt,value
2019-01-28T00:00:15.121Z,6.83
2019-01-28T00:02:43.814Z,6.90
2019-01-28T00:05:12.067Z,7.47
2019-01-28T00:07:40.334Z,7.00
2019-01-28T00:10:08.578Z,7.53
2019-01-28T00:12:36.842Z,6.77
2019-01-28T00:15:06.929Z,6.90
2019-01-28T00:17:36.811Z,7.13
2019-01-28T00:20:06.549Z,6.97
2019-01-28T00:22:34.813Z,7.13
2019-01-28T00:25:03.052Z,7.60
2019-01-28T00:27:31.300Z,7.27
2019-01-28T00:29:59.550Z,7.60
2019-01-28T00:32:27.806Z,8.07
2019-01-28T00:34:56.069Z,7.83
2019-01-28T00:37:24.340Z,8.13
2019-01-28T00:39:52.584Z,7.53
2019-01-28T00:42:20.852Z,7.70
2019-01-28T00:44:49.114Z,7.97
2019-01-28T00:47:17.378Z,7.17
2019-01-28T00:49:45.621Z,8.13
2019-01-28T00:52:13.882Z,8.07
2019-01-28T00:54:42.126Z,7.80
2019-01-28T00:57:10.395Z,7.50
2019-01-28T00:59:38.657Z,7.40
2019-01-28T01:02:06.905Z,7.90
2019-01-28T01:04:35.147Z,8.60
2019-01-28T01:07:03.407Z,8.37
2019-01-28T01:09:31.655Z,8.33
2019-01-28T01:11:59.927Z,8.30
2019-01-28T01:14:28.206Z,8.80
2019-01-28T01:16:56.509Z,8.63
2019-01-28T01:19:24.759Z,8.73
2019-01-28T01:21:53.015Z,9.20
2019-01-28T01:24:21.509Z,8.90
2019-01-28T01:26:49.767Z,9.80
2019-01-28T01:29:18.017Z,8.30
2019-01-28T01:31:46.269Z,8.40
2019-01-28T01:34:14.533Z,8.67
2019-01-28T01:36:42.780Z,9.63
2019-01-28T01:39:11.034Z,9.50
2019-01-28T01:41:39.317Z,9.40
2019-01-28T01:44:07.621Z,9.60
2019-01-28T01:46:35.898Z,9.63
2019-01-28T01:49:04.144Z,10.23
2019-01-28T01:51:32.418Z,9.70
2019-01-28T01:54:00.684Z,9.70
2019-01-28T01:56:28.993Z,9.13
2019-01-28T01:58:57.236Z,9.73
2019-01-28T02:01:25.510Z,10.50
2019-01-28T02:03:53.745Z,9.80
2019-01-28T02:06:22.022Z,9.80
2019-01-28T02:08:50.261Z,10.13
2019-01-28T02:11:18.518Z,10.07
2019-01-28T02:13:46.777Z,9.43
2019-01-28T02:16:15.027Z,9.70
2019-01-28T02:18:43.278Z,9.00
2019-01-28T02:21:13.149Z,8.93
2019-01-28T02:24:00.849Z,8.93
2019-01-28T02:26:29.166Z,8.57
2019-01-28T02:28:57.416Z,8.53
2019-01-28T02:31:25.681Z,8.03
2019-01-28T02:33:53.945Z,8.20
2019-01-28T02:36:22.185Z,7.30
2019-01-28T02:38:50.462Z,4.03
2019-01-28T02:41:18.730Z,2.43
2019-01-28T02:43:46.974Z,1.97
2019-01-28T02:46:15.229Z,2.00
2019-01-28T02:48:43.472Z,1.80
2019-01-28T02:51:11.730Z,1.70
2019-01-28T02:53:39.987Z,1.40
2019-01-28T02:56:09.118Z,1.10
2019-01-28T02:58:37.369Z,1.23
2019-01-28T03:01:05.612Z,1.60
2019-01-28T03:03:33.927Z,1.40
2019-01-28T03:06:02.181Z,1.80
2019-01-28T03:08:30.435Z,1.50
2019-01-28T03:10:58.678Z,1.50
2019-01-28T03:13:26.932Z,1.50
2019-01-28T03:15:55.258Z,1.53
2019-01-28T03:18:23.521Z,1.60
2019-01-28T03:20:51.773Z,1.50
2019-01-28T03:23:21.211Z,1.70
2019-01-28T03:25:49.452Z,1.57
2019-01-28T03:28:17.717Z,1.60
2019-01-28T03:30:45.980Z,1.70
2019-01-28T03:33:14.238Z,2.00
2019-01-28T03:35:42.473Z,2.20
2019-01-28T03:38:10.724Z,2.00
2019-01-28T03:40:38.978Z,2.20
2019-01-28T03:43:07.239Z,2.50
2019-01-28T03:45:35.502Z,2.40
2019-01-28T03:48:03.763Z,2.40
2019-01-28T03:50:32.008Z,2.50
2019-01-28T03:53:00.266Z,2.43
2019-01-28T03:55:28.529Z,3.10
2019-01-28T03:57:56.790Z,2.70
2019-01-28T04:00:25.881Z,2.60
2019-01-28T04:02:54.140Z,2.80
2019-01-28T04:05:22.625Z,2.43
2019-01-28T04:07:50.884Z,2.50
2019-01-28T04:10:21.068Z,2.50
2019-01-28T04:12:49.317Z,2.90
2019-01-28T04:15:38.634Z,2.50
2019-01-28T04:18:06.945Z,2.70
2019-01-28T04:20:35.201Z,2.90
2019-01-28T04:23:03.451Z,2.67
2019-01-28T04:25:31.719Z,2.40
2019-01-28T04:27:59.981Z,2.97
2019-01-28T04:30:28.245Z,2.77
2019-01-28T04:32:56.501Z,2.73
2019-01-28T04:35:24.745Z,2.77
2019-01-28T04:37:53.019Z,3.33
2019-01-28T04:40:21.286Z,2.93
2019-01-28T04:42:49.534Z,3.00
2019-01-28T04:45:20.196Z,3.00
2019-01-28T04:47:48.827Z,3.50
2019-01-28T04:50:18.669Z,3.10
2019-01-28T04:52:46.923Z,3.30
2019-01-28T04:55:15.437Z,3.33
2019-01-28T04:57:43.698Z,3.50
2019-01-28T05:00:17.409Z,3.20
2019-01-28T05:02:45.670Z,3.33
2019-01-28T05:05:13.942Z,3.87
2019-01-28T05:07:42.191Z,3.63
2019-01-28T05:10:15.812Z,3.10
2019-01-28T05:12:44.199Z,3.60
2019-01-28T05:15:14.598Z,3.20
2019-01-28T05:17:42.843Z,6.40
2019-01-28T05:20:13.249Z,4.63
2019-01-28T05:22:41.496Z,4.93
2019-01-28T05:25:29.195Z,4.30
2019-01-28T05:27:57.452Z,5.10
2019-01-28T05:30:25.709Z,4.67
2019-01-28T05:32:53.954Z,4.00
2019-01-28T05:35:22.769Z,3.70
2019-01-28T05:37:51.018Z,4.40
2019-01-28T05:40:20.937Z,4.30
2019-01-28T05:42:49.187Z,4.20
2019-01-28T05:45:18.905Z,4.43
2019-01-28T05:47:47.148Z,4.10
2019-01-28T05:50:15.678Z,13.13
2019-01-28T05:52:43.934Z,4.43
2019-01-28T05:55:14.258Z,4.13
2019-01-28T05:57:42.505Z,3.97
2019-01-28T06:00:19.155Z,4.40
2019-01-28T06:02:47.401Z,4.93
2019-01-28T06:05:15.673Z,4.80
2019-01-28T06:07:43.935Z,4.63
2019-01-28T06:10:14.554Z,4.43
2019-01-28T06:12:42.811Z,3.93
2019-01-28T06:15:18.764Z,4.37
2019-01-28T06:17:47.027Z,3.63
2019-01-28T06:20:23.553Z,3.83
2019-01-28T06:23:11.227Z,4.17
2019-01-28T06:25:39.486Z,3.80
2019-01-28T06:28:07.738Z,3.60
2019-01-28T06:30:35.989Z,4.10
2019-01-28T06:33:04.247Z,3.70
2019-01-28T06:35:32.510Z,3.27
2019-01-28T06:38:00.763Z,3.60
2019-01-28T06:40:31.731Z,3.43
2019-01-28T06:42:59.982Z,3.10
2019-01-28T06:45:28.309Z,3.13
2019-01-28T06:47:56.566Z,3.60
2019-01-28T06:50:24.829Z,2.73
2019-01-28T06:52:53.081Z,3.80
2019-01-28T06:55:21.344Z,3.07
2019-01-28T06:57:49.591Z,4.83
2019-01-28T07:00:31.959Z,3.20
2019-01-28T07:03:00.205Z,3.97
2019-01-28T07:05:28.470Z,2.90
2019-01-28T07:07:56.798Z,3.27
2019-01-28T07:10:25.064Z,3.30
2019-01-28T07:12:53.319Z,3.37
2019-01-28T07:15:22.517Z,2.97
2019-01-28T07:17:55.046Z,3.40
2019-01-28T07:20:26.960Z,3.30
2019-01-28T07:22:55.203Z,2.90
2019-01-28T07:25:23.453Z,2.63
2019-01-28T07:27:51.710Z,3.33
2019-01-28T07:30:23.058Z,2.90
2019-01-28T07:32:51.311Z,2.47
2019-01-28T07:35:19.583Z,2.73
2019-01-28T07:37:47.817Z,2.63
2019-01-28T07:40:16.354Z,3.90
2019-01-28T07:42:44.611Z,3.73
2019-01-28T07:45:18.882Z,3.37
2019-01-28T07:47:47.161Z,2.73
2019-01-28T07:50:15.488Z,3.17
2019-01-28T07:52:43.746Z,3.20
2019-01-28T07:55:13.306Z,3.20
2019-01-28T07:57:41.653Z,3.07
2019-01-28T08:00:15.760Z,2.53
2019-01-28T08:02:44.018Z,2.53
2019-01-28T08:05:14.035Z,2.53
2019-01-28T08:07:42.291Z,2.73
2019-01-28T08:10:12.902Z,2.43
2019-01-28T08:12:41.155Z,2.47
2019-01-28T08:15:15.143Z,2.37
2019-01-28T08:17:43.408Z,2.60
2019-01-28T08:20:14.117Z,2.63
2019-01-28T08:22:42.385Z,2.73
2019-01-28T08:25:15.272Z,2.77
2019-01-28T08:27:43.522Z,2.70
2019-01-28T08:30:15.056Z,2.73
2019-01-28T08:32:43.311Z,2.63
2019-01-28T08:35:11.818Z,2.57
2019-01-28T08:37:40.066Z,2.63
2019-01-28T08:40:16.854Z,3.00
2019-01-28T08:42:45.114Z,2.77
2019-01-28T08:45:13.381Z,2.30
2019-01-28T08:47:41.639Z,2.57
2019-01-28T08:50:22.215Z,2.33
2019-01-28T08:52:50.540Z,2.60
2019-01-28T08:55:20.540Z,2.40
2019-01-28T08:57:48.799Z,2.43
2019-01-28T09:00:27.934Z,2.53
2019-01-28T09:02:56.183Z,2.40
2019-01-28T09:05:24.445Z,2.30
2019-01-28T09:07:52.694Z,2.00
2019-01-28T09:10:23.498Z,2.27
2019-01-28T09:12:51.771Z,2.13
2019-01-28T09:15:21.222Z,1.70
2019-01-28T09:17:49.461Z,1.90
2019-01-28T09:20:23.318Z,1.90
2019-01-28T09:22:51.565Z,2.00
2019-01-28T09:25:19.826Z,1.93
2019-01-28T09:27:48.157Z,2.60
2019-01-28T09:30:19.749Z,2.30
2019-01-28T09:32:47.998Z,1.80
2019-01-28T09:35:16.270Z,1.90
2019-01-28T09:37:44.505Z,2.00
2019-01-28T09:40:18.492Z,1.90
2019-01-28T09:42:46.733Z,1.90
2019-01-28T09:45:17.837Z,1.50
2019-01-28T09:47:46.166Z,1.87
2019-01-28T09:50:15.763Z,1.50
2019-01-28T09:52:44.011Z,1.70
2019-01-28T09:55:13.709Z,1.40
2019-01-28T09:57:41.957Z,1.57
2019-01-28T10:00:20.326Z,1.47
2019-01-28T10:02:48.572Z,1.40
2019-01-28T10:05:16.897Z,1.57
2019-01-28T10:07:45.151Z,1.30
2019-01-28T10:10:20.233Z,1.20
2019-01-28T10:12:48.482Z,1.27
2019-01-28T10:15:20.981Z,1.37
2019-01-28T10:17:49.228Z,1.43
2019-01-28T10:20:29.066Z,1.42
2019-01-28T10:22:57.313Z,1.10
2019-01-28T10:25:25.581Z,1.30
2019-01-28T10:27:53.833Z,1.20
2019-01-28T10:30:25.594Z,1.20
2019-01-28T10:32:53.846Z,1.60
2019-01-28T10:35:22.105Z,1.65
2019-01-28T10:37:50.354Z,1.20
2019-01-28T10:40:29.612Z,1.27
2019-01-28T10:42:57.930Z,1.27
2019-01-28T10:45:26.191Z,1.43
2019-01-28T10:47:54.453Z,1.17
2019-01-28T10:50:24.137Z,1.10
2019-01-28T10:52:52.393Z,1.10
2019-01-28T10:55:22.488Z,1.00
2019-01-28T10:57:50.742Z,1.00
2019-01-28T11:00:21.932Z,1.22
2019-01-28T11:02:50.364Z,1.07
2019-01-28T11:05:18.610Z,1.00
2019-01-28T11:07:46.857Z,1.13
2019-01-28T11:10:17.946Z,1.40
2019-01-28T11:13:05.795Z,0.90
2019-01-28T11:15:34.311Z,1.97
2019-01-28T11:18:05.981Z,1.40
2019-01-28T11:20:34.212Z,1.40
2019-01-28T11:23:02.470Z,1.17
2019-01-28T11:25:32.476Z,1.00
2019-01-28T11:28:00.937Z,1.37
2019-01-28T11:30:45.919Z,1.20
2019-01-28T11:33:14.656Z,0.90
2019-01-28T11:35:43.145Z,1.07
2019-01-28T11:38:11.828Z,1.20
2019-01-28T11:40:59.526Z,0.80
2019-01-28T11:43:27.850Z,1.07
2019-01-28T11:45:58.808Z,1.10
2019-01-28T11:48:27.250Z,1.27
2019-01-28T11:50:56.316Z,1.00
2019-01-28T11:53:24.794Z,1.30
2019-01-28T11:55:53.047Z,1.13
2019-01-28T11:58:21.301Z,1.07
2019-01-28T12:00:54.226Z,0.93
2019-01-28T12:03:22.487Z,0.90
2019-01-28T12:05:50.731Z,1.05
2019-01-28T12:08:19.057Z,1.00
2019-01-28T12:10:47.311Z,0.78
2019-01-28T12:13:15.575Z,0.80
2019-01-28T12:15:43.829Z,0.90
2019-01-28T12:18:12.093Z,0.78
2019-01-28T12:20:40.341Z,0.70
2019-01-28T12:23:08.602Z,0.95
2019-01-28T12:25:36.854Z,1.02
2019-01-28T12:28:05.186Z,0.70
2019-01-28T12:30:33.570Z,1.00
2019-01-28T12:33:01.835Z,0.50
2019-01-28T12:35:30.086Z,0.67
2019-01-28T12:37:58.340Z,0.90
2019-01-28T12:40:26.585Z,0.80
2019-01-28T12:42:54.842Z,0.80
2019-01-28T12:45:25.044Z,0.60
2019-01-28T12:47:53.308Z,0.67
2019-01-28T12:50:22.890Z,0.70
2019-01-28T12:52:51.154Z,0.87
2019-01-28T12:55:20.646Z,0.97
2019-01-28T12:57:48.908Z,0.80
2019-01-28T13:00:19.671Z,1.00
2019-01-28T13:02:47.922Z,0.73
2019-01-28T13:05:18.515Z,1.60
2019-01-28T13:07:46.787Z,0.90
2019-01-28T13:10:17.862Z,0.80
2019-01-28T13:12:46.122Z,0.93
2019-01-28T13:15:30.999Z,0.70
2019-01-28T13:17:59.278Z,1.10
2019-01-28T13:20:27.609Z,1.20
2019-01-28T13:22:55.862Z,1.40
2019-01-28T13:25:26.831Z,0.93
2019-01-28T13:27:55.151Z,1.10
2019-01-28T13:30:25.348Z,0.90
2019-01-28T13:32:53.742Z,1.10
2019-01-28T13:35:21.995Z,0.50
2019-01-28T13:37:50.266Z,0.70
2019-01-28T13:40:18.531Z,0.90
2019-01-28T13:42:46.792Z,1.00
2019-01-28T13:45:19.766Z,0.80
2019-01-28T13:47:48.989Z,0.80
2019-01-28T13:50:19.837Z,0.70
2019-01-28T13:52:48.169Z,0.57
2019-01-28T13:55:16.487Z,1.07
2019-01-28T13:57:44.756Z,0.53
2019-01-28T14:00:24.329Z,0.70
2019-01-28T14:02:52.650Z,0.70
2019-01-28T14:05:20.903Z,0.67
2019-01-28T14:07:49.178Z,0.47
2019-01-28T14:10:19.923Z,0.90
2019-01-28T14:12:48.183Z,0.80
2019-01-28T14:15:22.122Z,0.73
2019-01-28T14:17:50.382Z,0.80
2019-01-28T14:20:21.069Z,0.70
2019-01-28T14:22:49.336Z,0.67
2019-01-28T14:25:17.580Z,1.13
2019-01-28T14:27:49.741Z,1.00
2019-01-28T14:30:21.988Z,1.10
2019-01-28T14:32:50.246Z,1.40
2019-01-28T14:35:18.508Z,0.97
2019-01-28T14:37:46.766Z,0.90
2019-01-28T14:40:18.208Z,1.10
2019-01-28T14:42:46.462Z,0.67
2019-01-28T14:45:14.714Z,1.10
2019-01-28T14:48:02.411Z,0.50
2019-01-28T14:50:35.541Z,0.70
2019-01-28T14:53:23.239Z,0.70
2019-01-28T14:55:51.741Z,0.60
2019-01-28T14:58:19.996Z,1.00
2019-01-28T15:00:48.254Z,0.90
2019-01-28T15:03:16.521Z,1.30
2019-01-28T15:05:44.765Z,0.80
2019-01-28T15:08:13.044Z,0.90
2019-01-28T15:10:41.348Z,0.80
2019-01-28T15:13:09.598Z,0.90
2019-01-28T15:15:39.292Z,0.67
2019-01-28T15:18:08.979Z,0.90
2019-01-28T15:20:37.514Z,0.90
2019-01-28T15:23:05.832Z,0.70
2019-01-28T15:25:34.086Z,0.73
2019-01-28T15:28:02.328Z,0.70
2019-01-28T15:30:31.018Z,0.70
2019-01-28T15:32:59.355Z,0.77
2019-01-28T15:35:27.647Z,1.10
2019-01-28T15:37:55.965Z,1.03
2019-01-28T15:40:27.023Z,1.00
2019-01-28T15:42:55.297Z,0.70
2019-01-28T15:45:25.898Z,0.93
2019-01-28T15:47:54.188Z,0.90
2019-01-28T15:50:22.559Z,0.70
2019-01-28T15:52:51.227Z,0.97
2019-01-28T15:55:25.080Z,1.10
2019-01-28T15:57:53.338Z,1.20
2019-01-28T16:00:24.392Z,0.90
2019-01-28T16:02:52.815Z,1.13
2019-01-28T16:05:21.070Z,1.13
2019-01-28T16:07:49.346Z,1.10
2019-01-28T16:10:18.449Z,1.20
2019-01-28T16:12:46.890Z,0.90
2019-01-28T16:15:28.600Z,1.27
2019-01-28T16:17:56.716Z,1.30
2019-01-28T16:20:24.974Z,1.23
2019-01-28T16:22:53.222Z,1.20
2019-01-28T16:25:21.490Z,1.50
2019-01-28T16:27:49.734Z,1.37
2019-01-28T16:30:26.238Z,1.20
2019-01-28T16:32:54.066Z,1.40
2019-01-28T16:35:22.331Z,1.40
2019-01-28T16:37:52.118Z,1.63
2019-01-28T16:40:28.255Z,1.93
2019-01-28T16:42:56.561Z,2.13
2019-01-28T16:45:24.813Z,2.43
2019-01-28T16:47:53.063Z,2.47
2019-01-28T16:50:33.497Z,2.20
2019-01-28T16:53:01.794Z,2.33
2019-01-28T16:55:30.037Z,2.70
2019-01-28T16:57:58.840Z,2.30
2019-01-28T17:00:32.637Z,2.27
2019-01-28T17:03:00.880Z,2.30
2019-01-28T17:05:29.156Z,2.30
2019-01-28T17:07:57.401Z,1.60
2019-01-28T17:10:25.660Z,1.50
2019-01-28T17:12:53.903Z,1.63
2019-01-28T17:15:22.813Z,1.63
2019-01-28T17:17:51.301Z,2.10
2019-01-28T17:20:35.154Z,2.10
2019-01-28T17:22:57.889Z,1.93
2019-01-28T17:25:29.036Z,1.30
2019-01-28T17:27:57.281Z,1.50
2019-01-28T17:30:36.273Z,1.17
2019-01-28T17:33:04.985Z,1.47
2019-01-28T17:35:33.251Z,1.63
2019-01-28T17:38:01.506Z,1.40
2019-01-28T17:40:31.780Z,1.60
2019-01-28T17:43:00.033Z,1.60
2019-01-28T17:45:28.554Z,1.30
2019-01-28T17:47:56.872Z,1.63
2019-01-28T17:50:25.959Z,1.50
2019-01-28T17:52:54.204Z,1.50
2019-01-28T17:55:22.473Z,1.47
2019-01-28T17:57:50.790Z,1.57
2019-01-28T18:00:29.659Z,1.90
2019-01-28T18:02:55.008Z,1.90
2019-01-28T18:05:23.269Z,1.77
2019-01-28T18:07:52.317Z,2.10
2019-01-28T18:10:20.576Z,1.50
2019-01-28T18:12:48.809Z,1.90
2019-01-28T18:15:22.565Z,2.97
2019-01-28T18:17:50.819Z,2.30
2019-01-28T18:20:19.093Z,1.73
2019-01-28T18:22:47.986Z,1.60
2019-01-28T18:25:25.035Z,2.00
2019-01-28T18:27:53.280Z,2.50
2019-01-28T18:30:33.394Z,1.90
2019-01-28T18:33:01.633Z,1.53
2019-01-28T18:35:29.890Z,1.53
2019-01-28T18:37:58.137Z,1.27
2019-01-28T18:40:26.380Z,1.00
2019-01-28T18:42:54.910Z,1.10
2019-01-28T18:45:23.533Z,1.47
2019-01-28T18:47:51.785Z,1.30
2019-01-28T18:50:23.841Z,1.60
2019-01-28T18:52:52.426Z,1.60
2019-01-28T18:55:21.925Z,1.47
2019-01-28T18:57:50.350Z,1.60
2019-01-28T19:00:20.957Z,2.37
2019-01-28T19:02:49.205Z,1.47
2019-01-28T19:05:37.819Z,2.00
2019-01-28T19:08:13.966Z,1.80
2019-01-28T19:10:43.869Z,2.17
2019-01-28T19:13:16.722Z,1.53
2019-01-28T19:15:49.277Z,1.67
2019-01-28T19:18:34.102Z,2.13
2019-01-28T19:21:09.730Z,1.43
2019-01-28T19:23:38.017Z,2.20
2019-01-28T19:26:06.322Z,2.03
2019-01-28T19:28:34.592Z,1.80
2019-01-28T19:31:22.274Z,2.37
2019-01-28T19:33:50.517Z,2.67
2019-01-28T19:36:18.810Z,2.23
2019-01-28T19:38:47.062Z,2.40
2019-01-28T19:41:15.328Z,2.47
2019-01-28T19:43:43.598Z,2.63
2019-01-28T19:46:11.854Z,4.43
2019-01-28T19:48:40.112Z,2.60
2019-01-28T19:51:15.457Z,2.30
2019-01-28T19:53:38.329Z,2.47
2019-01-28T19:56:06.591Z,2.60
2019-01-28T19:58:34.926Z,3.40
2019-01-28T20:01:03.179Z,3.00
2019-01-28T20:03:31.432Z,2.93
2019-01-28T20:05:59.677Z,3.30
2019-01-28T20:08:27.962Z,3.10
2019-01-28T20:10:56.220Z,2.67
2019-01-28T20:13:24.472Z,2.43
2019-01-28T20:15:52.729Z,2.63
2019-01-28T20:18:20.989Z,2.67
2019-01-28T20:20:49.237Z,2.77
2019-01-28T20:23:36.930Z,3.03
2019-01-28T20:26:05.247Z,2.70
2019-01-28T20:28:33.500Z,3.13
2019-01-28T20:31:01.754Z,3.13
2019-01-28T20:33:29.999Z,3.53
2019-01-28T20:35:58.259Z,3.47
2019-01-28T20:38:26.515Z,3.17
2019-01-28T20:41:14.202Z,3.70
2019-01-28T20:43:42.447Z,3.47
2019-01-28T20:46:10.724Z,3.90
2019-01-28T20:48:39.066Z,3.87
2019-01-28T20:51:07.388Z,4.00
2019-01-28T20:53:35.640Z,4.00
2019-01-28T20:56:03.929Z,7.93
2019-01-28T20:58:32.236Z,4.30
2019-01-28T21:01:00.491Z,4.37
2019-01-28T21:03:28.757Z,4.20
2019-01-28T21:05:57.085Z,3.93
2019-01-28T21:08:25.374Z,4.90
2019-01-28T21:10:53.648Z,4.70
2019-01-28T21:13:21.897Z,5.20
2019-01-28T21:15:50.183Z,4.93
2019-01-28T21:18:18.480Z,5.33
2019-01-28T21:20:46.738Z,5.30
2019-01-28T21:23:14.977Z,5.80
2019-01-28T21:25:43.230Z,5.80
2019-01-28T21:28:11.479Z,5.40
2019-01-28T21:30:39.729Z,6.13
2019-01-28T21:33:07.973Z,5.87
2019-01-28T21:38:22.010Z,5.73
2019-01-28T21:40:50.265Z,6.13
2019-01-28T21:43:18.517Z,5.57
2019-01-28T21:45:46.825Z,6.60
2019-01-28T21:48:15.116Z,6.83
2019-01-28T21:50:43.450Z,6.97
2019-01-28T21:53:11.729Z,7.40
2019-01-28T21:55:40.052Z,7.47
2019-01-28T21:58:08.312Z,7.73
2019-01-28T22:00:36.573Z,7.63
2019-01-28T22:03:04.905Z,7.90
2019-01-28T22:05:33.254Z,8.10
2019-01-28T22:08:01.517Z,8.63
2019-01-28T22:10:29.766Z,8.77
2019-01-28T22:12:58.023Z,8.23
2019-01-28T22:15:26.278Z,8.00
2019-01-28T22:17:54.571Z,8.77
2019-01-28T22:20:22.842Z,8.63
2019-01-28T22:22:51.170Z,9.10
2019-01-28T22:25:19.412Z,8.80
2019-01-28T22:27:47.668Z,9.80
2019-01-28T22:30:20.929Z,8.60
2019-01-28T22:32:49.251Z,9.77
2019-01-28T22:35:17.508Z,10.03
2019-01-28T22:37:45.772Z,10.97
2019-01-28T22:40:16.525Z,11.27
2019-01-28T22:42:44.787Z,11.30
2019-01-28T22:45:15.078Z,10.93
2019-01-28T22:47:43.350Z,10.07
2019-01-28T22:50:16.447Z,10.47
2019-01-28T22:52:44.798Z,9.03
2019-01-28T22:55:15.442Z,9.20
2019-01-28T22:57:43.815Z,8.87
2019-01-28T23:00:49.474Z,9.07
2019-01-28T23:03:19.268Z,8.30
2019-01-28T23:05:47.555Z,8.00
2019-01-28T23:08:15.934Z,7.33
2019-01-28T23:10:44.179Z,8.07
2019-01-28T23:13:12.437Z,8.00
2019-01-28T23:15:40.685Z,7.50
2019-01-28T23:18:08.956Z,7.23
2019-01-28T23:20:37.219Z,7.33
2019-01-28T23:23:05.541Z,7.43
2019-01-28T23:25:33.870Z,7.03
2019-01-28T23:28:02.114Z,7.30
2019-01-28T23:30:30.362Z,6.73
2019-01-28T23:32:58.694Z,6.00
2019-01-28T23:35:26.936Z,5.63
2019-01-28T23:37:55.570Z,5.67
2019-01-28T23:40:23.808Z,5.60
2019-01-28T23:42:52.057Z,5.20
2019-01-28T23:45:20.369Z,5.27
2019-01-28T23:47:48.633Z,4.90
2019-01-28T23:50:16.877Z,5.33
2019-01-28T23:52:45.132Z,4.73
2019-01-28T23:55:32.809Z,4.90
2019-01-28T23:58:01.074Z,4.47
